Time;durP1;ratioP1;P1;durP2;ratioP2;P2;SDS_P1;SDS_P2;PMS_P1;PMS_P2;Temp;Humidity;BMP_temperature;BMP_pressure;BME280_temperature;BME280_humidity;BME280_pressure;Samples;Min_cycle;Max_cycle;Signal;HPM_P1;HPM_P2
2023/07/30 00:02:03;;;;;;;5.30;3.40;;;;;;;18.50;94.26;97284.80;106990;1273;25396;-78
2023/07/30 00:04:30;;;;;;;5.00;3.30;;;;;;;18.48;94.78;97286.02;107048;1273;24251;-77
2023/07/30 00:06:58;;;;;;;5.50;3.20;;;;;;;18.46;95.60;97285.06;107009;1273;25469;-77
2023/07/30 00:09:27;;;;;;;4.80;3.70;;;;;;;18.44;96.61;97285.17;107019;1273;22528;-78
2023/07/30 00:11:55;;;;;;;4.90;3.40;;;;;;;18.42;96.28;97281.17;106997;1273;24159;-77
2023/07/30 00:14:23;;;;;;;6.10;3.10;;;;;;;18.42;96.33;97279.30;107035;1273;24393;-77
2023/07/30 00:16:51;;;;;;;4.00;2.90;;;;;;;18.41;97.05;97279.13;106999;1273;25410;-77
2023/07/30 00:19:19;;;;;;;5.00;3.20;;;;;;;18.41;96.83;97283.08;106997;1273;22623;-77
2023/07/30 00:21:47;;;;;;;5.10;3.30;;;;;;;18.40;97.37;97285.58;107030;1273;22653;-78
2023/07/30 00:24:15;;;;;;;4.90;3.60;;;;;;;18.39;97.21;97282.75;106941;1273;24445;-79
2023/07/30 00:26:43;;;;;;;4.20;3.30;;;;;;;18.36;97.65;97278.59;107556;1273;170032;-79
2023/07/30 00:29:11;;;;;;;5.20;3.60;;;;;;;18.33;96.79;97273.15;107237;1273;22837;-78
2023/07/30 00:31:39;;;;;;;6.10;3.90;;;;;;;18.33;96.51;97278.23;107212;1273;22521;-79
2023/07/30 00:34:08;;;;;;;5.60;3.40;;;;;;;18.34;97.59;97286.33;107210;1273;22573;-78
2023/07/30 00:36:36;;;;;;;5.30;3.20;;;;;;;18.33;97.95;97289.13;107051;1273;22514;-79
2023/07/30 00:39:04;;;;;;;6.80;3.80;;;;;;;18.32;97.15;97292.13;107195;1273;22570;-78
2023/07/30 00:41:32;;;;;;;6.20;3.50;;;;;;;18.33;98.52;97291.39;107009;1273;22609;-77
2023/07/30 00:44:00;;;;;;;7.60;3.80;;;;;;;18.32;98.63;97289.27;107005;1273;25329;-77
2023/07/30 00:46:28;;;;;;;6.10;4.10;;;;;;;18.29;97.81;97282.98;106845;1273;22529;-77
2023/07/30 00:48:57;;;;;;;6.60;3.60;;;;;;;18.27;98.03;97286.06;106963;1273;22522;-77
2023/07/30 00:51:27;;;;;;;9.50;4.00;;;;;;;18.25;98.94;97292.18;107009;1273;25374;-77
2023/07/30 00:53:55;;;;;;;7.90;3.60;;;;;;;18.24;98.25;97287.11;106936;1273;25272;-77
2023/07/30 00:56:23;;;;;;;6.20;3.80;;;;;;;18.25;98.89;97286.11;107018;1273;22996;-77
2023/07/30 00:58:52;;;;;;;5.90;3.30;;;;;;;18.25;99.58;97285.41;106972;1273;22780;-78
2023/07/30 01:01:20;;;;;;;4.90;3.70;;;;;;;18.24;99.69;97290.14;106972;1273;22782;-77
2023/07/30 01:03:50;;;;;;;5.40;4.00;;;;;;;18.25;100.00;97297.02;107024;1273;22630;-78
2023/07/30 01:06:20;;;;;;;8.00;4.30;;;;;;;18.25;100.00;97299.42;107030;1273;25529;-79
2023/07/30 01:08:48;;;;;;;6.10;4.10;;;;;;;18.23;100.00;97299.86;107039;1273;22778;-78
2023/07/30 01:11:18;;;;;;;6.90;3.90;;;;;;;18.24;100.00;97299.33;106993;1273;22524;-78
2023/07/30 01:13:47;;;;;;;8.50;3.80;;;;;;;18.23;100.00;97298.77;106980;1273;22523;-78
2023/07/30 01:16:16;;;;;;;5.80;4.00;;;;;;;18.22;100.00;97294.08;107409;1273;25382;-78
2023/07/30 01:18:45;;;;;;;7.10;4.10;;;;;;;18.24;100.00;97293.41;107203;1273;24283;-78
2023/07/30 01:21:13;;;;;;;8.10;3.80;;;;;;;18.24;100.00;97292.48;107391;1273;22550;-78
2023/07/30 01:23:41;;;;;;;6.60;3.90;;;;;;;18.23;100.00;97298.86;107422;1273;25376;-79
2023/07/30 01:26:17;;;;;;;6.80;3.70;;;;;;;18.23;100.00;97300.17;107356;1273;22531;-79
2023/07/30 01:28:49;;;;;;;7.80;4.10;;;;;;;18.24;100.00;97309.08;107174;1273;22804;-78
2023/07/30 01:31:19;;;;;;;5.80;3.90;;;;;;;18.25;100.00;97312.37;107245;1273;22531;-78
2023/07/30 01:33:52;;;;;;;7.50;4.20;;;;;;;18.24;100.00;97313.60;107378;1273;22599;-79
2023/07/30 01:36:20;;;;;;;5.60;4.10;;;;;;;18.24;100.00;97314.21;107092;1273;22775;-79
2023/07/30 01:38:50;;;;;;;7.10;4.00;;;;;;;18.24;100.00;97314.69;107223;1273;22530;-79
2023/07/30 01:41:18;;;;;;;7.00;4.40;;;;;;;18.21;100.00;97312.70;107205;1273;23908;-78
2023/07/30 01:43:46;;;;;;;5.50;3.70;;;;;;;18.22;100.00;97318.39;107359;1273;22528;-78
2023/07/30 01:46:14;;;;;;;5.60;3.60;;;;;;;18.23;100.00;97311.39;107366;1273;24276;-78
2023/07/30 01:48:42;;;;;;;6.00;3.50;;;;;;;18.22;100.00;97311.61;107274;1273;22583;-78
2023/07/30 01:51:10;;;;;;;5.30;3.40;;;;;;;18.21;100.00;97313.61;107286;1273;25858;-78
2023/07/30 01:53:38;;;;;;;5.70;3.70;;;;;;;18.19;100.00;97318.02;107244;1273;22645;-78
2023/07/30 01:56:06;;;;;;;6.30;3.30;;;;;;;18.18;100.00;97323.77;106862;1273;23110;-78
2023/07/30 01:58:34;;;;;;;4.40;3.20;;;;;;;18.16;100.00;97325.92;107276;1273;22572;-78
2023/07/30 02:01:02;;;;;;;5.40;3.60;;;;;;;18.14;100.00;97323.09;106915;1273;22627;-78
2023/07/30 02:03:30;;;;;;;8.30;3.70;;;;;;;18.14;100.00;97327.98;107220;1273;22677;-78
2023/07/30 02:05:59;;;;;;;5.20;3.30;;;;;;;18.14;100.00;97330.16;107297;1273;24216;-79
2023/07/30 02:08:27;;;;;;;9.10;3.20;;;;;;;18.13;100.00;97327.73;107269;1273;24263;-78
2023/07/30 02:10:58;;;;;;;5.20;3.80;;;;;;;18.11;100.00;97328.09;107259;1273;22517;-78
2023/07/30 02:13:26;;;;;;;8.20;3.60;;;;;;;18.10;100.00;97326.73;107170;1273;23654;-78
2023/07/30 02:15:54;;;;;;;5.60;3.60;;;;;;;18.07;100.00;97333.69;106915;1265;25237;-77
2023/07/30 02:18:22;;;;;;;4.70;3.40;;;;;;;18.03;100.00;97332.54;106928;1273;22620;-78
2023/07/30 02:20:50;;;;;;;5.30;3.20;;;;;;;18.04;100.00;97330.92;106969;1273;24448;-77
2023/07/30 02:23:18;;;;;;;5.30;3.20;;;;;;;18.01;100.00;97325.41;107036;1273;22608;-77
2023/07/30 02:25:46;;;;;;;5.20;3.30;;;;;;;17.97;100.00;97324.48;106930;1273;22532;-77
2023/07/30 02:28:14;;;;;;;8.50;3.50;;;;;;;17.93;100.00;97321.14;106930;1273;25275;-78
2023/07/30 02:30:42;;;;;;;5.90;3.60;;;;;;;17.90;100.00;97319.84;106868;1273;26570;-77
2023/07/30 02:33:10;;;;;;;5.60;3.40;;;;;;;17.87;100.00;97318.30;106842;1273;22646;-78
2023/07/30 02:35:38;;;;;;;6.10;3.30;;;;;;;17.82;100.00;97315.78;106850;1273;22648;-79
2023/07/30 02:38:06;;;;;;;6.50;3.10;;;;;;;17.75;100.00;97317.11;107206;1273;22557;-78
2023/07/30 02:40:34;;;;;;;4.00;2.90;;;;;;;17.69;100.00;97322.59;106876;1273;25559;-78
2023/07/30 02:43:02;;;;;;;5.30;2.70;;;;;;;17.65;100.00;97326.80;106851;1273;25319;-79
2023/07/30 02:45:30;;;;;;;6.40;3.00;;;;;;;17.61;100.00;97323.83;107239;1273;22986;-78
2023/07/30 02:47:58;;;;;;;6.20;3.10;;;;;;;17.56;100.00;97319.46;107220;1273;22622;-78
2023/07/30 02:50:27;;;;;;;6.60;3.20;;;;;;;17.53;100.00;97318.22;106881;1273;22520;-78
2023/07/30 02:52:55;;;;;;;6.60;3.20;;;;;;;17.47;100.00;97319.19;107323;1273;23303;-78
2023/07/30 02:55:23;;;;;;;4.00;3.00;;;;;;;17.41;100.00;97322.65;107177;1273;22708;-78
2023/07/30 02:57:51;;;;;;;3.90;2.80;;;;;;;17.36;100.00;97320.05;107208;1273;25328;-78
2023/07/30 03:00:19;;;;;;;5.60;3.20;;;;;;;17.32;100.00;97331.40;107196;1273;22599;-78
2023/07/30 03:02:47;;;;;;;4.60;3.40;;;;;;;17.27;100.00;97334.80;106862;1273;22644;-78
2023/07/30 03:05:15;;;;;;;4.60;2.80;;;;;;;17.23;100.00;97338.45;106851;1273;25341;-78
2023/07/30 03:07:44;;;;;;;4.50;3.10;;;;;;;17.21;100.00;97337.26;107255;1273;24362;-78
2023/07/30 03:10:12;;;;;;;5.10;2.70;;;;;;;17.20;100.00;97343.90;106931;1273;24341;-79
2023/07/30 03:12:40;;;;;;;4.40;2.60;;;;;;;17.19;100.00;97344.66;107251;1273;22668;-79
2023/07/30 03:15:08;;;;;;;4.60;2.80;;;;;;;17.15;100.00;97350.88;107401;1273;22650;-77
2023/07/30 03:17:36;;;;;;;5.20;2.80;;;;;;;17.12;100.00;97353.31;107397;1273;22702;-78
2023/07/30 03:20:05;;;;;;;5.00;2.70;;;;;;;17.08;100.00;97359.59;107425;1273;24374;-77
2023/07/30 03:22:33;;;;;;;3.90;2.60;;;;;;;17.04;100.00;97358.24;106970;1273;24366;-79
2023/07/30 03:25:01;;;;;;;3.60;2.90;;;;;;;17.01;100.00;97364.34;107035;1273;22640;-78
2023/07/30 03:27:29;;;;;;;4.10;2.30;;;;;;;17.00;100.00;97360.73;106977;1273;22567;-79
2023/07/30 03:29:57;;;;;;;3.80;2.30;;;;;;;17.00;100.00;97365.39;106810;1273;22953;-78
2023/07/30 03:32:25;;;;;;;4.20;2.90;;;;;;;16.99;100.00;97369.88;106871;1273;22521;-78
2023/07/30 03:34:53;;;;;;;4.90;2.60;;;;;;;16.96;100.00;97369.89;107306;1273;22633;-78
2023/07/30 03:37:21;;;;;;;3.70;2.50;;;;;;;16.93;100.00;97369.27;106940;1273;22795;-78
2023/07/30 03:39:49;;;;;;;3.50;2.30;;;;;;;16.94;100.00;97366.88;107357;1273;26538;-78
2023/07/30 03:42:17;;;;;;;3.00;2.60;;;;;;;16.96;100.00;97370.13;107014;1273;25395;-78
2023/07/30 03:44:45;;;;;;;3.60;2.90;;;;;;;16.99;100.00;97372.59;107429;1273;22574;-78
2023/07/30 03:47:13;;;;;;;3.70;2.70;;;;;;;17.02;100.00;97377.65;106921;1256;25340;-78
2023/07/30 03:49:41;;;;;;;8.30;3.70;;;;;;;16.99;100.00;97382.93;107086;1273;25353;-78
2023/07/30 03:52:09;;;;;;;3.70;2.60;;;;;;;16.94;100.00;97391.70;107068;1273;24250;-78
2023/07/30 03:54:39;;;;;;;2.80;2.50;;;;;;;16.92;100.00;97392.41;107021;1256;22629;-78
2023/07/30 03:57:07;;;;;;;5.40;3.00;;;;;;;16.90;100.00;97392.05;107057;1273;22629;-78
2023/07/30 03:59:35;;;;;;;5.20;3.60;;;;;;;16.90;100.00;97394.70;107376;1273;22607;-78
2023/07/30 04:02:04;;;;;;;5.40;3.50;;;;;;;16.91;100.00;97394.02;107022;1273;22525;-78
2023/07/30 04:04:32;;;;;;;5.10;3.80;;;;;;;16.89;100.00;97391.73;107395;1273;22772;-79
2023/07/30 04:07:00;;;;;;;5.30;3.20;;;;;;;16.87;100.00;97393.21;107400;1260;22526;-78
2023/07/30 04:09:28;;;;;;;3.60;2.60;;;;;;;16.82;100.00;97388.15;106881;1273;23930;-77
2023/07/30 04:11:56;;;;;;;4.80;2.50;;;;;;;16.81;100.00;97384.38;107087;1273;22526;-77
2023/07/30 04:14:24;;;;;;;6.20;2.80;;;;;;;16.76;100.00;97385.48;107025;1273;25388;-77
2023/07/30 04:16:52;;;;;;;4.80;3.00;;;;;;;16.75;100.00;97388.89;107017;1273;22575;-77
2023/07/30 04:19:20;;;;;;;3.70;2.80;;;;;;;16.78;99.99;97384.55;106851;1273;26805;-77
2023/07/30 04:21:49;;;;;;;4.50;3.00;;;;;;;16.77;99.98;97386.84;107029;1273;25517;-79
2023/07/30 04:24:18;;;;;;;4.30;2.90;;;;;;;16.77;100.00;97387.80;106981;1250;23019;-80
2023/07/30 04:26:46;;;;;;;8.80;3.20;;;;;;;16.80;100.00;97393.86;107146;1273;26522;-78
2023/07/30 04:29:16;;;;;;;9.60;3.30;;;;;;;16.85;100.00;97390.06;106926;1273;22529;-79
2023/07/30 04:31:44;;;;;;;6.00;3.00;;;;;;;16.92;100.00;97392.33;107246;1273;22581;-79
2023/07/30 04:34:13;;;;;;;6.50;3.20;;;;;;;17.00;100.00;97395.02;107372;1273;25873;-78
2023/07/30 04:36:41;;;;;;;6.60;3.50;;;;;;;17.06;99.99;97396.17;107380;1273;22567;-79
2023/07/30 04:39:12;;;;;;;4.30;2.50;;;;;;;17.06;100.00;97403.09;107220;1273;22518;-78
2023/07/30 04:41:40;;;;;;;4.50;2.80;;;;;;;17.07;100.00;97406.08;107203;1273;22589;-79
2023/07/30 04:44:08;;;;;;;4.00;2.70;;;;;;;17.10;100.00;97408.63;107177;1273;24373;-79
2023/07/30 04:46:36;;;;;;;3.70;2.60;;;;;;;17.12;100.00;97412.33;107188;1273;22753;-78
2023/07/30 04:49:05;;;;;;;3.10;2.60;;;;;;;17.14;100.00;97411.77;107122;1273;25320;-79
2023/07/30 04:51:33;;;;;;;4.00;2.90;;;;;;;17.15;99.87;97407.59;107200;1273;22630;-79
2023/07/30 04:54:01;;;;;;;9.40;3.90;;;;;;;17.14;99.96;97407.25;107220;1273;22569;-78
2023/07/30 04:56:29;;;;;;;4.90;2.80;;;;;;;17.18;99.92;97404.85;107051;1273;24109;-79
2023/07/30 04:58:57;;;;;;;3.30;2.20;;;;;;;17.23;99.74;97402.10;107213;1273;22722;-79
2023/07/30 05:01:25;;;;;;;6.30;2.70;;;;;;;17.31;99.88;97401.64;107325;1265;22854;-78
2023/07/30 05:03:53;;;;;;;3.50;2.40;;;;;;;17.34;99.65;97397.59;106918;1273;23892;-79
2023/07/30 05:06:22;;;;;;;5.50;2.90;;;;;;;17.40;99.82;97399.13;107268;1273;25335;-78
2023/07/30 05:08:50;;;;;;;5.10;3.00;;;;;;;17.46;99.53;97398.73;106897;1251;22561;-79
2023/07/30 05:11:18;;;;;;;4.60;3.10;;;;;;;17.49;99.04;97396.61;107229;1273;22517;-79
2023/07/30 05:13:47;;;;;;;3.30;2.70;;;;;;;17.52;98.99;97399.07;107238;1273;22525;-79
2023/07/30 05:16:14;;;;;;;4.50;2.90;;;;;;;17.58;99.09;97406.66;107296;1273;25348;-78
2023/07/30 05:18:42;;;;;;;3.90;2.80;;;;;;;17.63;98.58;97408.02;106974;1273;22563;-78
2023/07/30 05:21:12;;;;;;;6.90;2.90;;;;;;;17.67;97.45;97407.63;106942;1273;25284;-78
2023/07/30 05:23:40;;;;;;;5.10;2.90;;;;;;;17.71;97.81;97405.77;106963;1273;25409;-78
2023/07/30 05:26:08;;;;;;;5.60;3.00;;;;;;;17.75;97.45;97409.67;106983;1273;24239;-78
2023/07/30 05:28:36;;;;;;;7.30;3.80;;;;;;;17.82;97.66;97411.02;107016;1273;25691;-78
2023/07/30 05:31:04;;;;;;;4.90;3.00;;;;;;;17.91;97.20;97408.88;106995;1273;23143;-78
2023/07/30 05:33:32;;;;;;;3.90;2.50;;;;;;;17.99;95.87;97408.78;107371;1273;24320;-77
2023/07/30 05:36:00;;;;;;;5.00;2.70;;;;;;;18.03;95.21;97420.95;107003;1273;22631;-78
2023/07/30 05:38:28;;;;;;;6.30;2.90;;;;;;;18.11;95.44;97422.98;107034;1273;24225;-77
2023/07/30 05:40:56;;;;;;;5.50;2.80;;;;;;;18.23;95.93;97424.29;107051;1273;25407;-78
2023/07/30 05:43:24;;;;;;;4.60;2.90;;;;;;;18.34;94.56;97428.46;107378;1273;25546;-78
2023/07/30 05:45:52;;;;;;;3.40;2.60;;;;;;;18.36;94.37;97426.34;107320;1273;24203;-78
2023/07/30 05:48:20;;;;;;;6.00;3.00;;;;;;;18.43;94.31;97420.84;107004;1273;24364;-77
2023/07/30 05:50:49;;;;;;;4.60;2.80;;;;;;;18.51;93.70;97427.30;106997;1273;25574;-78
2023/07/30 05:53:16;;;;;;;5.10;2.70;;;;;;;18.62;94.29;97428.12;107029;1273;22544;-78
2023/07/30 05:55:44;;;;;;;4.40;2.30;;;;;;;18.73;92.95;97427.06;106972;1273;25243;-78
2023/07/30 05:58:12;;;;;;;3.90;2.30;;;;;;;18.78;92.50;97429.30;107345;1273;24587;-79
2023/07/30 06:00:40;;;;;;;2.60;2.20;;;;;;;18.84;91.73;97437.90;107330;1273;23883;-79
2023/07/30 06:03:09;;;;;;;5.70;2.60;;;;;;;18.87;89.66;97437.32;107275;1273;22559;-78
2023/07/30 06:05:41;;;;;;;3.00;2.30;;;;;;;18.95;90.80;97440.56;107395;1273;26574;-78
2023/07/30 06:08:09;;;;;;;3.50;2.50;;;;;;;19.08;90.05;97444.21;107685;1273;22581;-78
2023/07/30 06:10:38;;;;;;;3.40;2.40;;;;;;;19.19;89.36;97446.10;107407;1250;22757;-78
2023/07/30 06:13:06;;;;;;;4.90;2.70;;;;;;;19.22;87.50;97447.39;106955;1273;25158;-79
2023/07/30 06:15:34;;;;;;;6.30;2.60;;;;;;;19.18;86.26;97444.77;107381;1273;22782;-78
2023/07/30 06:18:03;;;;;;;3.10;2.40;;;;;;;19.20;86.40;97443.23;107047;1273;24341;-78
2023/07/30 06:20:31;;;;;;;2.70;2.20;;;;;;;19.26;86.33;97433.65;107008;1273;24566;-78
2023/07/30 06:22:59;;;;;;;4.60;2.50;;;;;;;19.32;86.96;97433.73;107335;1273;22554;-78
2023/07/30 06:25:27;;;;;;;2.80;1.80;;;;;;;19.40;86.42;97439.95;106969;1273;24242;-78
2023/07/30 06:27:58;;;;;;;4.50;2.50;;;;;;;19.41;84.83;97445.20;107309;1249;22774;-78
2023/07/30 06:30:26;;;;;;;5.90;2.70;;;;;;;19.40;86.10;97439.95;107297;1252;22774;-78
2023/07/30 06:32:54;;;;;;;2.60;2.30;;;;;;;19.49;85.62;97435.86;107223;1273;22567;-78
2023/07/30 06:35:22;;;;;;;3.80;2.40;;;;;;;19.56;84.74;97442.20;107302;1273;22634;-78
2023/07/30 06:37:50;;;;;;;3.30;2.10;;;;;;;19.66;84.43;97443.39;107244;1273;22525;-78
2023/07/30 06:40:18;;;;;;;2.90;2.50;;;;;;;19.72;84.22;97439.88;106989;1273;22613;-78
2023/07/30 06:42:46;;;;;;;3.80;2.50;;;;;;;19.78;84.56;97437.54;107426;1273;24343;-78
2023/07/30 06:45:14;;;;;;;3.70;2.80;;;;;;;19.85;83.55;97444.59;106892;1273;24104;-79
2023/07/30 06:47:42;;;;;;;2.90;2.20;;;;;;;19.92;82.90;97448.67;107278;1273;25389;-79
2023/07/30 06:50:10;;;;;;;3.10;2.00;;;;;;;20.00;83.31;97446.34;107310;1273;24018;-79
2023/07/30 06:52:38;;;;;;;4.00;2.40;;;;;;;20.06;81.98;97448.84;107207;1273;25373;-79
2023/07/30 06:55:07;;;;;;;3.30;2.20;;;;;;;20.14;82.53;97446.67;106993;1273;22534;-79
2023/07/30 06:57:35;;;;;;;3.00;2.50;;;;;;;20.19;81.40;97448.77;107276;1273;22965;-79
2023/07/30 07:00:04;;;;;;;3.80;2.20;;;;;;;20.23;80.12;97440.22;107241;1253;24251;-79
2023/07/30 07:02:33;;;;;;;2.80;2.20;;;;;;;20.30;81.98;97440.52;107234;1273;25297;-79
2023/07/30 07:05:01;;;;;;;3.50;2.00;;;;;;;20.39;80.22;97437.03;107200;1273;25220;-79
2023/07/30 07:07:30;;;;;;;3.60;2.40;;;;;;;20.42;80.26;97438.23;107341;1273;22683;-79
2023/07/30 07:09:58;;;;;;;2.80;2.20;;;;;;;20.46;80.52;97438.89;107308;1273;22648;-80
2023/07/30 07:12:26;;;;;;;3.60;2.50;;;;;;;20.55;80.63;97440.42;107208;1273;22542;-78
2023/07/30 07:14:57;;;;;;;3.70;2.50;;;;;;;20.67;79.79;97446.96;106958;1273;22527;-80
2023/07/30 07:17:26;;;;;;;3.30;2.60;;;;;;;20.76;80.00;97444.63;107349;1273;26280;-78
2023/07/30 07:19:54;;;;;;;5.50;2.80;;;;;;;20.89;79.42;97441.54;107379;1273;23913;-78
2023/07/30 07:22:22;;;;;;;4.10;3.00;;;;;;;20.93;79.56;97440.86;107334;1273;22521;-79
2023/07/30 07:24:53;;;;;;;2.90;2.40;;;;;;;21.03;79.05;97445.40;107339;1273;22551;-78
2023/07/30 07:27:23;;;;;;;7.00;2.40;;;;;;;21.08;78.81;97442.77;107353;1273;22747;-79
2023/07/30 07:29:52;;;;;;;2.80;2.30;;;;;;;21.06;77.63;97442.61;107009;1273;25356;-78
2023/07/30 07:32:20;;;;;;;5.20;2.70;;;;;;;20.98;77.75;97441.07;106982;1273;25339;-78
2023/07/30 07:34:49;;;;;;;4.60;2.20;;;;;;;20.98;77.43;97447.80;106915;1273;25371;-78
2023/07/30 07:37:18;;;;;;;3.80;2.40;;;;;;;20.98;77.10;97444.44;106958;1273;22641;-78
2023/07/30 07:39:47;;;;;;;4.50;3.00;;;;;;;21.04;77.60;97449.34;106973;1273;22671;-78
2023/07/30 07:42:14;;;;;;;2.90;2.30;;;;;;;21.14;78.12;97455.37;106921;1273;22641;-78
2023/07/30 07:44:45;;;;;;;2.80;2.10;;;;;;;21.20;77.27;97457.05;107248;1273;22615;-78
2023/07/30 07:47:14;;;;;;;3.70;2.80;;;;;;;21.19;77.32;97451.58;106989;1273;25657;-78
2023/07/30 07:49:42;;;;;;;4.60;2.50;;;;;;;21.25;76.70;97453.58;106913;1273;25744;-77
2023/07/30 07:52:10;;;;;;;3.30;2.40;;;;;;;21.32;76.33;97448.16;106941;1273;22518;-80
2023/07/30 07:54:38;;;;;;;3.70;2.80;;;;;;;21.43;77.01;97443.24;107299;1273;26646;-80
2023/07/30 07:57:06;;;;;;;4.10;2.70;;;;;;;21.53;76.95;97446.66;107399;1273;23001;-78
2023/07/30 07:59:34;;;;;;;4.90;3.20;;;;;;;21.55;75.30;97447.07;107231;1273;25452;-78
2023/07/30 08:02:02;;;;;;;3.70;2.80;;;;;;;21.49;74.67;97450.33;107006;1273;22938;-78
2023/07/30 08:04:30;;;;;;;3.60;2.90;;;;;;;21.52;75.62;97444.86;106971;1273;24359;-78
2023/07/30 08:07:03;;;;;;;3.60;2.60;;;;;;;21.65;75.76;97441.04;107003;1271;22518;-78
2023/07/30 08:09:31;;;;;;;3.60;2.50;;;;;;;21.83;76.65;97440.89;107049;1273;22787;-79
2023/07/30 08:12:00;;;;;;;3.90;2.80;;;;;;;22.03;76.57;97439.89;107318;1273;23839;-79
2023/07/30 08:14:30;;;;;;;3.50;2.70;;;;;;;22.09;75.58;97439.20;107347;1273;22642;-79
2023/07/30 08:16:58;;;;;;;4.20;3.20;;;;;;;22.15;75.05;97442.28;107383;1273;22765;-79
2023/07/30 08:19:26;;;;;;;3.30;2.40;;;;;;;22.15;73.63;97454.15;107360;1273;25388;-79
2023/07/30 08:21:56;;;;;;;2.90;2.60;;;;;;;22.12;74.25;97456.15;107327;1273;22600;-79
2023/07/30 08:24:24;;;;;;;3.80;2.60;;;;;;;22.11;74.38;97451.05;107377;1273;24243;-79
2023/07/30 08:26:52;;;;;;;2.90;2.60;;;;;;;22.17;74.34;97453.37;107318;1273;22530;-79
2023/07/30 08:29:20;;;;;;;3.30;2.40;;;;;;;22.26;73.22;97458.04;107337;1273;23236;-79
2023/07/30 08:31:48;;;;;;;3.30;2.80;;;;;;;22.24;73.68;97456.94;107346;1273;22664;-79
2023/07/30 08:34:16;;;;;;;5.00;2.90;;;;;;;22.29;73.48;97458.20;107306;1273;23523;-79
2023/07/30 08:36:44;;;;;;;4.40;2.80;;;;;;;22.37;73.03;97461.61;107368;1273;22508;-79
2023/07/30 08:39:12;;;;;;;3.20;2.80;;;;;;;22.43;72.85;97461.39;107347;1273;22530;-79
2023/07/30 08:41:41;;;;;;;3.10;2.70;;;;;;;22.57;72.69;97465.44;107300;1273;22641;-79
2023/07/30 08:44:09;;;;;;;3.60;2.60;;;;;;;22.69;71.85;97468.05;107307;1273;22532;-78
2023/07/30 08:46:37;;;;;;;6.90;2.80;;;;;;;22.84;72.61;97471.05;107325;1273;22529;-78
2023/07/30 08:49:05;;;;;;;6.10;2.90;;;;;;;22.98;71.17;97474.95;107251;1273;24266;-78
2023/07/30 08:51:37;;;;;;;4.90;2.50;;;;;;;23.05;71.35;97475.90;107295;1273;22632;-78
2023/07/30 08:54:06;;;;;;;3.60;2.70;;;;;;;23.01;70.03;97478.95;107017;1273;24231;-78
2023/07/30 08:56:34;;;;;;;3.50;2.40;;;;;;;22.98;70.55;97477.77;107074;1273;25338;-79
2023/07/30 08:59:05;;;;;;;4.00;3.00;;;;;;;23.07;70.82;97472.14;107327;1273;24237;-80
2023/07/30 09:01:38;;;;;;;3.90;2.60;;;;;;;23.13;69.48;97474.25;107485;1273;22632;-79
2023/07/30 09:04:08;;;;;;;6.20;2.60;;;;;;;23.24;70.83;97468.84;107001;1273;25274;-79
2023/07/30 09:06:38;;;;;;;5.10;2.70;;;;;;;23.43;70.20;97464.66;107020;1273;25369;-79
2023/07/30 09:09:09;;;;;;;3.30;2.40;;;;;;;23.52;68.32;97464.58;107329;1273;22622;-79
2023/07/30 09:11:37;;;;;;;5.00;2.80;;;;;;;23.41;66.75;97467.42;107313;1250;25495;-79
2023/07/30 09:14:06;;;;;;;3.50;2.50;;;;;;;23.39;67.96;97468.98;106988;1273;22525;-78
2023/07/30 09:16:34;;;;;;;3.60;2.60;;;;;;;23.47;68.79;97466.39;107356;1273;24229;-78
2023/07/30 09:19:03;;;;;;;4.60;2.50;;;;;;;23.61;67.13;97465.82;107305;1273;25459;-78
2023/07/30 09:21:32;;;;;;;4.80;2.40;;;;;;;23.56;66.19;97466.77;106994;1273;22742;-78
2023/07/30 09:24:05;;;;;;;5.70;2.50;;;;;;;23.54;65.68;97464.50;107352;1273;24224;-78
2023/07/30 09:26:44;;;;;;;3.80;2.70;;;;;;;23.46;65.92;97463.41;107043;1273;22565;-78
2023/07/30 09:29:12;;;;;;;3.30;2.50;;;;;;;23.45;65.60;97464.36;107298;1273;22528;-78
2023/07/30 09:31:48;;;;;;;4.00;2.80;;;;;;;23.46;66.55;97459.72;107419;1273;22641;-78
2023/07/30 09:34:18;;;;;;;6.40;2.90;;;;;;;23.60;67.53;97462.76;107404;1273;25343;-79
2023/07/30 09:36:47;;;;;;;2.90;2.40;;;;;;;23.77;65.82;97462.91;107005;1273;22663;-79
2023/07/30 09:39:22;;;;;;;3.40;2.60;;;;;;;23.78;64.43;97462.83;107294;1273;22782;-80
2023/07/30 09:41:51;;;;;;;3.10;2.40;;;;;;;23.68;63.58;97463.86;107315;1273;22544;-80
2023/07/30 09:44:21;;;;;;;3.90;2.80;;;;;;;23.64;64.45;97460.63;107391;1273;22528;-79
2023/07/30 09:46:49;;;;;;;3.90;3.00;;;;;;;23.66;65.67;97456.23;107345;1273;24264;-80
2023/07/30 09:49:18;;;;;;;3.70;2.30;;;;;;;23.81;65.95;97454.73;107281;1273;22543;-79
2023/07/30 09:51:46;;;;;;;3.70;2.70;;;;;;;23.92;64.59;97451.70;106998;1273;22524;-77
2023/07/30 09:54:15;;;;;;;4.10;2.40;;;;;;;23.90;64.36;97447.30;106999;1273;24077;-79
2023/07/30 09:56:43;;;;;;;6.20;2.90;;;;;;;23.88;63.40;97447.48;107276;1273;25393;-79
2023/07/30 09:59:11;;;;;;;2.60;2.40;;;;;;;23.86;63.36;97447.48;107240;1273;22629;-79
2023/07/30 10:01:45;;;;;;;5.70;2.60;;;;;;;23.85;62.30;97444.96;107205;1273;22619;-78
2023/07/30 10:04:14;;;;;;;3.70;2.60;;;;;;;23.83;61.53;97450.95;107418;1273;22673;-78
2023/07/30 10:06:59;;;;;;;4.80;2.70;;;;;;;23.81;60.69;97443.56;107009;1273;22812;-78
2023/07/30 10:09:32;;;;;;;2.30;2.10;;;;;;;23.79;62.19;97440.35;107342;1273;22577;-79
2023/07/30 10:12:01;;;;;;;4.70;2.20;;;;;;;23.82;61.27;97443.95;107329;1273;22531;-79
2023/07/30 10:14:29;;;;;;;3.70;2.80;;;;;;;23.84;60.57;97441.75;107361;1273;22527;-79
2023/07/30 10:17:00;;;;;;;4.10;2.60;;;;;;;23.81;61.23;97446.31;107363;1273;24372;-79
2023/07/30 10:19:29;;;;;;;3.20;2.80;;;;;;;23.91;61.94;97445.58;107352;1273;22527;-79
2023/07/30 10:22:12;;;;;;;3.20;2.30;;;;;;;23.97;61.76;97443.45;107266;1273;24431;-78
2023/07/30 10:24:55;;;;;;;3.30;2.50;;;;;;;23.99;61.44;97444.06;107019;1273;22514;-78
2023/07/30 10:27:24;;;;;;;4.00;2.70;;;;;;;23.93;61.00;97443.77;107324;1273;22533;-78
2023/07/30 10:30:12;;;;;;;4.20;3.00;;;;;;;23.87;60.94;97439.61;107351;1273;22598;-79
2023/07/30 10:32:55;;;;;;;3.80;2.60;;;;;;;24.00;62.16;97442.64;107474;1273;22543;-78
2023/07/30 10:35:48;;;;;;;3.00;2.40;;;;;;;24.09;60.55;97445.21;107367;1273;22526;-78
2023/07/30 10:38:27;;;;;;;3.20;2.50;;;;;;;23.98;59.74;97448.70;106972;1273;23923;-77
2023/07/30 10:41:12;;;;;;;3.50;2.70;;;;;;;23.95;59.62;97443.75;106952;1273;22520;-78
2023/07/30 10:43:49;;;;;;;3.00;2.50;;;;;;;24.00;60.80;97440.05;107251;1257;24364;-79
2023/07/30 10:46:18;;;;;;;5.50;2.50;;;;;;;24.15;59.96;97442.83;107252;1273;25470;-79
2023/07/30 10:48:48;;;;;;;3.80;2.80;;;;;;;24.26;60.30;97434.27;107349;1273;22527;-78
2023/07/30 10:51:19;;;;;;;3.70;2.80;;;;;;;24.31;59.52;97434.88;107344;1273;22620;-79
2023/07/30 10:53:49;;;;;;;3.90;2.90;;;;;;;24.28;58.97;97434.43;107352;1273;24579;-79
2023/07/30 10:56:23;;;;;;;4.50;3.00;;;;;;;24.18;59.10;97429.05;107342;1273;22647;-79
2023/07/30 10:58:53;;;;;;;4.00;2.50;;;;;;;24.17;59.25;97437.45;107341;1273;22638;-79
2023/07/30 11:01:25;;;;;;;3.50;2.40;;;;;;;24.13;58.98;97436.23;107334;1273;22787;-78
2023/07/30 11:03:53;;;;;;;10.00;2.90;;;;;;;24.09;59.07;97432.47;107345;1273;23026;-79
2023/07/30 11:06:26;;;;;;;4.10;2.60;;;;;;;24.11;59.11;97434.41;107294;1273;22637;-79
2023/07/30 11:08:54;;;;;;;4.60;2.40;;;;;;;24.15;58.07;97438.25;107358;1273;22525;-79
2023/07/30 11:11:24;;;;;;;3.70;3.00;;;;;;;24.22;58.75;97434.61;107403;1273;22520;-79
2023/07/30 11:13:52;;;;;;;4.30;2.90;;;;;;;24.33;58.49;97433.15;107308;1273;22516;-78
2023/07/30 11:16:21;;;;;;;3.80;2.30;;;;;;;24.41;58.02;97435.70;107411;1273;22516;-78
2023/07/30 11:18:50;;;;;;;3.50;2.50;;;;;;;24.49;58.07;97437.80;107425;1273;22553;-78
2023/07/30 11:21:18;;;;;;;2.70;2.50;;;;;;;24.50;58.46;97436.70;107314;1273;22532;-78
2023/07/30 11:23:46;;;;;;;5.00;2.60;;;;;;;24.53;57.84;97435.34;107019;1273;22710;-78
2023/07/30 11:26:17;;;;;;;3.20;2.40;;;;;;;24.44;57.26;97437.11;107361;1273;22643;-78
2023/07/30 11:28:45;;;;;;;3.60;2.40;;;;;;;24.35;56.48;97438.56;107414;1273;22558;-78
2023/07/30 11:31:17;;;;;;;4.30;2.90;;;;;;;24.27;56.94;97435.54;107327;1273;22569;-78